Time;durP1;ratioP1;P1;durP2;ratioP2;P2;SDS_P1;SDS_P2;PMS_P1;PMS_P2;Temp;Humidity;BMP_temperature;BMP_pressure;BME280_temperature;BME280_humidity;BME280_pressure;Samples;Min_cycle;Max_cycle;Signal;HPM_P1;HPM_P2
2023/09/29 00:01:37;;;;;;;12.40;3.55;;;;;;;;;;4358172;32;317899;-84
2023/09/29 00:04:07;;;;;;;5.03;3.22;;;;;;;;;;4367471;32;317747;-84
2023/09/29 00:06:35;;;;;;;8.38;2.72;;;;;;;;;;4353390;32;316711;-84
2023/09/29 00:09:06;;;;;;;4.47;2.90;;;;;;;;;;4363384;32;316935;-84
2023/09/29 00:11:33;;;;;;;12.68;3.78;;;;;;;;;;4358637;32;316899;-84
2023/09/29 00:14:01;;;;;;;10.10;3.40;;;;;;;;;;4367149;32;317918;-83
2023/09/29 00:16:28;;;;;;;7.10;3.33;;;;;;;;;;4368074;32;317739;-84
2023/09/29 00:18:56;;;;;;;10.27;3.47;;;;;;;;;;4352522;32;416204;-83
2023/09/29 00:21:25;;;;;;;8.02;2.87;;;;;;;;;;4370746;32;318044;-85
2023/09/29 00:23:52;;;;;;;12.63;3.15;;;;;;;;;;4361458;32;316790;-84
2023/09/29 00:26:20;;;;;;;7.80;2.67;;;;;;;;;;4370350;32;318157;-83
2023/09/29 00:28:47;;;;;;;12.93;4.72;;;;;;;;;;4356643;32;317275;-83
2023/09/29 00:31:15;;;;;;;8.93;3.55;;;;;;;;;;4368726;32;317841;-83
2023/09/29 00:33:43;;;;;;;10.00;4.28;;;;;;;;;;4361176;32;316862;-85
2023/09/29 00:36:11;;;;;;;12.43;2.78;;;;;;;;;;4370921;32;317711;-85
2023/09/29 00:38:40;;;;;;;8.60;3.08;;;;;;;;;;4359124;32;317909;-84
2023/09/29 00:41:09;;;;;;;5.75;2.85;;;;;;;;;;4369068;32;316715;-84
2023/09/29 00:43:37;;;;;;;8.18;3.30;;;;;;;;;;4359003;32;317178;-84
2023/09/29 00:46:06;;;;;;;10.68;3.20;;;;;;;;;;4370811;32;316775;-83
2023/09/29 00:48:35;;;;;;;6.28;3.30;;;;;;;;;;4359096;32;365786;-84
2023/09/29 00:51:02;;;;;;;6.22;3.28;;;;;;;;;;4365311;32;316937;-84
2023/09/29 00:53:31;;;;;;;14.57;3.25;;;;;;;;;;4359737;32;316746;-85
2023/09/29 00:56:00;;;;;;;6.72;2.92;;;;;;;;;;4369241;32;317860;-84
2023/09/29 00:58:28;;;;;;;11.40;3.28;;;;;;;;;;4370463;32;316741;-83
2023/09/29 01:00:55;;;;;;;16.05;3.58;;;;;;;;;;4349722;32;417177;-83
2023/09/29 01:03:23;;;;;;;8.25;3.25;;;;;;;;;;4360617;32;317584;-82
2023/09/29 01:05:52;;;;;;;12.65;3.37;;;;;;;;;;4353354;32;316826;-82
2023/09/29 01:08:21;;;;;;;9.10;3.25;;;;;;;;;;4364060;32;317876;-82
2023/09/29 01:10:50;;;;;;;20.58;3.58;;;;;;;;;;4348366;32;316820;-83
2023/09/29 01:13:19;;;;;;;9.55;3.42;;;;;;;;;;4358456;32;350008;-82
2023/09/29 01:15:47;;;;;;;12.98;4.07;;;;;;;;;;4353453;32;316751;-82
2023/09/29 01:18:16;;;;;;;11.85;3.87;;;;;;;;;;4360904;32;317813;-83
2023/09/29 01:20:44;;;;;;;7.87;3.85;;;;;;;;;;4347528;32;318114;-86
2023/09/29 01:23:11;;;;;;;12.60;3.12;;;;;;;;;;4359379;32;317273;-84
2023/09/29 01:25:41;;;;;;;13.82;3.22;;;;;;;;;;4351859;32;317963;-84
2023/09/29 01:28:10;;;;;;;13.98;3.97;;;;;;;;;;4362427;32;317852;-84
2023/09/29 01:30:41;;;;;;;15.00;4.40;;;;;;;;;;4352089;32;318038;-85
2023/09/29 01:33:09;;;;;;;5.95;3.15;;;;;;;;;;4361439;32;318043;-84
2023/09/29 01:35:36;;;;;;;11.02;3.75;;;;;;;;;;4350684;32;317233;-84
2023/09/29 01:38:04;;;;;;;5.07;3.00;;;;;;;;;;4362028;32;317857;-83
2023/09/29 01:40:31;;;;;;;10.30;3.42;;;;;;;;;;4349681;32;353847;-83
2023/09/29 01:43:00;;;;;;;13.20;3.35;;;;;;;;;;4356326;32;317785;-84
2023/09/29 01:45:28;;;;;;;9.15;2.90;;;;;;;;;;4360074;32;317828;-83
2023/09/29 01:47:55;;;;;;;7.50;2.97;;;;;;;;;;4345076;32;419085;-84
2023/09/29 01:50:23;;;;;;;15.07;4.22;;;;;;;;;;4361400;32;316816;-83
2023/09/29 01:52:52;;;;;;;9.98;3.62;;;;;;;;;;4351865;32;317912;-85
2023/09/29 01:55:22;;;;;;;13.98;3.42;;;;;;;;;;4364119;32;316890;-84
2023/09/29 01:57:51;;;;;;;11.68;3.12;;;;;;;;;;4352002;32;317697;-82
2023/09/29 02:00:24;;;;;;;5.18;2.50;;;;;;;;;;4358920;32;317627;-82
2023/09/29 02:02:52;;;;;;;8.93;3.00;;;;;;;;;;4352541;32;316753;-83
2023/09/29 02:05:20;;;;;;;18.65;3.08;;;;;;;;;;4361220;32;316660;-82
2023/09/29 02:07:48;;;;;;;14.95;3.67;;;;;;;;;;4351058;32;318075;-82
2023/09/29 02:10:19;;;;;;;5.80;2.83;;;;;;;;;;4359538;32;317889;-82
2023/09/29 02:12:51;;;;;;;6.78;2.95;;;;;;;;;;4349196;32;316949;-86
2023/09/29 02:15:19;;;;;;;10.25;3.37;;;;;;;;;;4361887;32;316942;-84
2023/09/29 02:17:49;;;;;;;12.10;2.90;;;;;;;;;;4351829;32;318075;-84
2023/09/29 02:20:17;;;;;;;19.45;3.42;;;;;;;;;;4359149;32;318180;-84
2023/09/29 02:22:45;;;;;;;7.05;3.65;;;;;;;;;;4348355;32;317705;-84
2023/09/29 02:25:52;;;;;;;13.52;5.00;;;;;;;;;;4360706;32;316776;-85
2023/09/29 02:28:20;;;;;;;28.40;12.95;;;;;;;;;;4356204;32;417839;-84
2023/09/29 02:30:50;;;;;;;20.58;13.50;;;;;;;;;;4355368;32;318840;-85
2023/09/29 02:33:17;;;;;;;36.80;11.57;;;;;;;;;;4369283;32;319121;-84
2023/09/29 02:35:45;;;;;;;13.10;7.40;;;;;;;;;;4359318;32;319058;-85
2023/09/29 02:38:12;;;;;;;13.62;5.22;;;;;;;;;;4367990;32;318080;-85
2023/09/29 02:40:40;;;;;;;7.50;3.75;;;;;;;;;;4357884;32;317639;-85
2023/09/29 02:43:07;;;;;;;11.55;4.20;;;;;;;;;;4364038;32;316710;-83
2023/09/29 02:45:35;;;;;;;12.13;3.72;;;;;;;;;;4357514;32;318036;-84
2023/09/29 02:48:05;;;;;;;10.90;4.00;;;;;;;;;;4367581;32;317935;-84
2023/09/29 02:50:35;;;;;;;11.63;3.10;;;;;;;;;;4357828;32;317780;-84
2023/09/29 02:53:05;;;;;;;11.12;4.60;;;;;;;;;;4364343;32;318027;-85
2023/09/29 02:55:33;;;;;;;11.43;3.75;;;;;;;;;;4354279;32;318001;-85
2023/09/29 02:58:01;;;;;;;10.43;3.30;;;;;;;;;;4368618;32;317994;-84
2023/09/29 03:00:29;;;;;;;7.47;3.50;;;;;;;;;;4367777;32;317649;-85
2023/09/29 03:02:56;;;;;;;13.20;3.72;;;;;;;;;;4351659;32;416283;-83
2023/09/29 03:05:25;;;;;;;16.17;4.00;;;;;;;;;;4367143;32;318105;-86
2023/09/29 03:07:55;;;;;;;15.00;3.92;;;;;;;;;;4356623;32;317824;-82
2023/09/29 03:10:25;;;;;;;5.18;2.97;;;;;;;;;;4367256;32;318173;-83
2023/09/29 03:12:56;;;;;;;10.77;3.30;;;;;;;;;;4354937;32;316975;-84
2023/09/29 03:15:24;;;;;;;15.10;3.62;;;;;;;;;;4367879;32;318089;-84
2023/09/29 03:17:52;;;;;;;10.90;3.65;;;;;;;;;;4354983;32;317912;-84
2023/09/29 03:20:20;;;;;;;10.40;3.58;;;;;;;;;;4367466;32;317790;-85
2023/09/29 03:22:49;;;;;;;8.55;3.00;;;;;;;;;;4353296;32;318124;-83
2023/09/29 03:25:19;;;;;;;9.85;2.55;;;;;;;;;;4367338;32;316767;-84
2023/09/29 03:27:47;;;;;;;12.35;3.58;;;;;;;;;;4354936;32;317289;-86
2023/09/29 03:30:15;;;;;;;7.10;3.40;;;;;;;;;;4368618;32;317965;-85
2023/09/29 03:32:45;;;;;;;5.45;3.08;;;;;;;;;;4352738;32;316908;-86
2023/09/29 03:35:14;;;;;;;6.25;3.10;;;;;;;;;;4367564;32;317207;-85
2023/09/29 03:37:43;;;;;;;13.23;3.92;;;;;;;;;;4354755;32;316830;-83
2023/09/29 03:40:14;;;;;;;18.10;3.10;;;;;;;;;;4365753;32;317788;-83
2023/09/29 03:42:42;;;;;;;11.40;2.80;;;;;;;;;;4355372;32;317918;-83
2023/09/29 03:45:11;;;;;;;14.73;3.58;;;;;;;;;;4364051;32;317820;-82
2023/09/29 03:47:38;;;;;;;8.70;3.50;;;;;;;;;;4355212;32;317996;-82
2023/09/29 03:50:11;;;;;;;7.47;3.83;;;;;;;;;;4369181;32;316706;-83
2023/09/29 03:52:39;;;;;;;19.13;2.87;;;;;;;;;;4355841;32;317452;-83
2023/09/29 03:55:09;;;;;;;14.35;3.22;;;;;;;;;;4365755;32;317990;-83
2023/09/29 03:57:41;;;;;;;11.88;3.30;;;;;;;;;;4358079;32;317811;-83
2023/09/29 04:00:12;;;;;;;8.88;3.00;;;;;;;;;;4367542;32;317972;-81
2023/09/29 04:02:42;;;;;;;7.78;2.80;;;;;;;;;;4357669;32;329591;-81
2023/09/29 04:05:10;;;;;;;11.55;3.53;;;;;;;;;;4367792;32;317411;-86
2023/09/29 04:07:39;;;;;;;8.98;3.42;;;;;;;;;;4358486;32;317832;-84
2023/09/29 04:10:08;;;;;;;19.12;3.25;;;;;;;;;;4368369;32;316779;-82
2023/09/29 04:12:36;;;;;;;6.85;3.58;;;;;;;;;;4358210;32;317850;-84
2023/09/29 04:15:05;;;;;;;9.07;3.83;;;;;;;;;;4364524;32;316901;-82
2023/09/29 04:17:33;;;;;;;6.90;3.25;;;;;;;;;;4355929;32;316749;-82
2023/09/29 04:20:02;;;;;;;12.35;3.72;;;;;;;;;;4368805;32;317033;-83
2023/09/29 04:22:29;;;;;;;12.35;3.67;;;;;;;;;;4367125;32;317723;-82
2023/09/29 04:24:57;;;;;;;7.65;3.30;;;;;;;;;;4351540;32;387123;-84
2023/09/29 04:27:24;;;;;;;15.02;4.05;;;;;;;;;;4366091;32;316741;-83
2023/09/29 04:29:52;;;;;;;11.77;3.60;;;;;;;;;;4357837;32;318228;-84
2023/09/29 04:32:21;;;;;;;8.45;3.37;;;;;;;;;;4367743;32;317722;-83
2023/09/29 04:34:49;;;;;;;8.75;3.83;;;;;;;;;;4353996;32;316846;-84
2023/09/29 04:37:16;;;;;;;17.08;5.47;;;;;;;;;;4367246;32;316896;-84
2023/09/29 04:39:44;;;;;;;10.98;3.55;;;;;;;;;;4358197;32;317815;-84
2023/09/29 04:42:11;;;;;;;14.90;4.82;;;;;;;;;;4366733;32;355842;-85
2023/09/29 04:44:41;;;;;;;14.38;5.00;;;;;;;;;;4356956;32;317723;-84
2023/09/29 04:47:08;;;;;;;12.35;4.37;;;;;;;;;;4363073;32;317626;-83
2023/09/29 04:49:37;;;;;;;21.87;4.78;;;;;;;;;;4357938;32;317874;-85
2023/09/29 04:52:05;;;;;;;10.25;3.65;;;;;;;;;;4363711;32;318083;-85
2023/09/29 04:54:32;;;;;;;12.90;3.90;;;;;;;;;;4356059;32;317871;-82
2023/09/29 04:57:00;;;;;;;22.23;4.28;;;;;;;;;;4363960;32;317950;-83
2023/09/29 04:59:29;;;;;;;16.85;3.92;;;;;;;;;;4367547;32;317917;-86
2023/09/29 05:01:57;;;;;;;11.65;3.60;;;;;;;;;;4354812;32;389172;-84
2023/09/29 05:04:25;;;;;;;10.48;3.65;;;;;;;;;;4367451;32;317820;-84
2023/09/29 05:06:53;;;;;;;12.00;4.60;;;;;;;;;;4353251;32;317791;-83
2023/09/29 05:09:21;;;;;;;10.27;4.47;;;;;;;;;;4370480;32;317913;-85
2023/09/29 05:11:49;;;;;;;21.33;3.37;;;;;;;;;;4359635;32;317833;-85
2023/09/29 05:14:16;;;;;;;13.62;3.75;;;;;;;;;;4369586;32;317816;-83
2023/09/29 05:16:47;;;;;;;12.35;3.55;;;;;;;;;;4358754;32;318066;-84
2023/09/29 05:19:14;;;;;;;20.35;3.92;;;;;;;;;;4368817;32;318270;-84
2023/09/29 05:21:42;;;;;;;16.58;3.75;;;;;;;;;;4358768;32;317829;-85
2023/09/29 05:24:11;;;;;;;17.73;4.07;;;;;;;;;;4369497;32;317944;-85
2023/09/29 05:26:38;;;;;;;17.30;4.47;;;;;;;;;;4357067;32;318164;-86
2023/09/29 05:29:06;;;;;;;13.00;3.62;;;;;;;;;;4364932;32;317629;-86
2023/09/29 05:31:33;;;;;;;19.23;5.03;;;;;;;;;;4358250;32;317791;-85
2023/09/29 05:34:00;;;;;;;10.15;3.58;;;;;;;;;;4367522;32;317904;-86
2023/09/29 05:36:29;;;;;;;9.20;3.75;;;;;;;;;;4367544;32;318435;-83
2023/09/29 05:38:57;;;;;;;12.30;4.32;;;;;;;;;;4353610;32;416153;-83
2023/09/29 05:41:26;;;;;;;8.00;4.15;;;;;;;;;;4366350;32;317770;-83
2023/09/29 05:43:55;;;;;;;22.35;5.25;;;;;;;;;;4357870;32;317191;-85
2023/09/29 05:46:22;;;;;;;13.25;4.53;;;;;;;;;;4368847;32;317814;-82
2023/09/29 05:48:53;;;;;;;20.23;4.82;;;;;;;;;;4356975;32;317798;-86
2023/09/29 05:51:21;;;;;;;15.60;4.25;;;;;;;;;;4366649;32;317906;-88
2023/09/29 05:53:48;;;;;;;12.77;4.40;;;;;;;;;;4355349;32;317896;-80
2023/09/29 05:56:16;;;;;;;17.25;5.78;;;;;;;;;;4367481;32;317760;-79
2023/09/29 05:58:45;;;;;;;18.65;5.07;;;;;;;;;;4357481;32;318000;-80
2023/09/29 06:01:15;;;;;;;20.67;4.78;;;;;;;;;;4366741;32;317752;-79
2023/09/29 06:03:42;;;;;;;29.60;5.00;;;;;;;;;;4356431;32;317910;-80
2023/09/29 06:06:10;;;;;;;18.50;5.12;;;;;;;;;;4363895;32;317876;-80
2023/09/29 06:08:38;;;;;;;16.95;5.15;;;;;;;;;;4359574;32;317900;-81
2023/09/29 06:11:05;;;;;;;33.45;5.72;;;;;;;;;;4367997;32;317862;-80
2023/09/29 06:13:32;;;;;;;28.02;4.85;;;;;;;;;;4367439;32;317888;-81
2023/09/29 06:16:03;;;;;;;17.65;3.92;;;;;;;;;;4354428;32;318190;-80
2023/09/29 06:18:31;;;;;;;18.27;5.12;;;;;;;;;;4367383;32;318347;-80
2023/09/29 06:20:58;;;;;;;24.55;4.78;;;;;;;;;;4359212;32;317569;-80
2023/09/29 06:23:26;;;;;;;19.65;4.87;;;;;;;;;;4368502;32;318120;-80
2023/09/29 06:25:57;;;;;;;16.75;5.15;;;;;;;;;;4355819;32;317745;-80
2023/09/29 06:28:25;;;;;;;23.45;5.53;;;;;;;;;;4367203;32;317947;-81
2023/09/29 06:30:53;;;;;;;13.52;4.57;;;;;;;;;;4356521;32;317883;-78
2023/09/29 06:33:22;;;;;;;19.77;5.47;;;;;;;;;;4355455;32;317771;-79
2023/09/29 06:35:52;;;;;;;24.95;4.87;;;;;;;;;;4356723;32;317932;-82
2023/09/29 06:38:19;;;;;;;13.13;5.37;;;;;;;;;;4368565;32;317603;-79
2023/09/29 06:40:47;;;;;;;21.58;5.07;;;;;;;;;;4356737;32;318072;-80
2023/09/29 06:43:15;;;;;;;15.60;5.68;;;;;;;;;;4367391;32;317791;-79
2023/09/29 06:45:43;;;;;;;18.02;5.62;;;;;;;;;;4356253;32;317955;-79
2023/09/29 06:48:10;;;;;;;20.92;5.93;;;;;;;;;;4365937;32;318012;-79
2023/09/29 06:50:39;;;;;;;14.63;6.80;;;;;;;;;;4356304;32;317936;-80
2023/09/29 06:53:06;;;;;;;21.40;5.80;;;;;;;;;;4365080;32;318007;-84
2023/09/29 06:55:34;;;;;;;14.40;6.15;;;;;;;;;;4368309;32;317834;-79
2023/09/29 06:58:03;;;;;;;20.33;6.03;;;;;;;;;;4345926;32;318693;-78
2023/09/29 07:00:30;;;;;;;19.92;5.90;;;;;;;;;;4362423;32;325167;-77
2023/09/29 07:02:58;;;;;;;23.75;7.20;;;;;;;;;;4347780;32;317745;-79
2023/09/29 07:05:26;;;;;;;34.95;8.43;;;;;;;;;;4357174;32;317735;-80
2023/09/29 07:07:57;;;;;;;26.33;8.63;;;;;;;;;;4349852;32;339451;-80
2023/09/29 07:10:24;;;;;;;19.87;8.45;;;;;;;;;;4358548;32;317771;-82
2023/09/29 07:12:51;;;;;;;22.33;8.73;;;;;;;;;;4347917;32;317762;-78
2023/09/29 07:15:19;;;;;;;26.62;8.38;;;;;;;;;;4364250;32;317507;-77
2023/09/29 07:17:47;;;;;;;24.15;9.20;;;;;;;;;;4349515;32;318271;-79
2023/09/29 07:20:14;;;;;;;16.23;6.43;;;;;;;;;;4353806;32;317762;-80
2023/09/29 07:22:42;;;;;;;14.13;6.37;;;;;;;;;;4348923;32;317684;-80
2023/09/29 07:25:11;;;;;;;10.48;5.43;;;;;;;;;;4361175;32;317869;-82
2023/09/29 07:27:39;;;;;;;21.42;5.37;;;;;;;;;;4350008;32;317906;-81
2023/09/29 07:30:08;;;;;;;16.70;4.30;;;;;;;;;;4353223;32;317734;-82
2023/09/29 07:32:36;;;;;;;12.37;4.37;;;;;;;;;;4358634;32;317663;-81
2023/09/29 07:35:07;;;;;;;16.67;3.45;;;;;;;;;;4345502;32;417255;-80
2023/09/29 07:37:34;;;;;;;13.48;3.15;;;;;;;;;;4357695;32;317594;-80
2023/09/29 07:40:02;;;;;;;15.35;3.37;;;;;;;;;;4349195;32;417008;-82
2023/09/29 07:42:32;;;;;;;19.55;3.35;;;;;;;;;;4358766;32;317774;-80
2023/09/29 07:44:59;;;;;;;16.73;3.30;;;;;;;;;;4351183;32;317930;-81
2023/09/29 07:47:26;;;;;;;12.95;4.03;;;;;;;;;;4360862;32;336232;-82
2023/09/29 07:49:54;;;;;;;17.70;3.28;;;;;;;;;;4343663;32;318000;-82
2023/09/29 07:52:27;;;;;;;7.97;2.95;;;;;;;;;;4357920;32;317825;-81
2023/09/29 07:54:55;;;;;;;23.62;4.57;;;;;;;;;;4349863;32;316837;-81
2023/09/29 07:57:22;;;;;;;11.50;3.17;;;;;;;;;;4361166;32;317874;-82
2023/09/29 07:59:52;;;;;;;12.75;3.12;;;;;;;;;;4341258;32;317989;-81
2023/09/29 08:02:20;;;;;;;21.25;3.25;;;;;;;;;;4365210;32;317868;-79
2023/09/29 08:04:47;;;;;;;26.02;3.45;;;;;;;;;;4356047;32;317938;-81
2023/09/29 08:07:15;;;;;;;14.73;3.30;;;;;;;;;;4367732;32;318423;-80
2023/09/29 08:09:42;;;;;;;11.00;2.72;;;;;;;;;;4357393;32;318003;-80
2023/09/29 08:12:09;;;;;;;7.25;3.08;;;;;;;;;;4361292;32;317765;-81
2023/09/29 08:14:37;;;;;;;42.28;3.50;;;;;;;;;;4356399;32;316982;-83
2023/09/29 08:17:06;;;;;;;11.48;3.25;;;;;;;;;;4367572;32;317972;-87
2023/09/29 08:19:35;;;;;;;8.10;3.45;;;;;;;;;;4366091;32;317756;-87
2023/09/29 08:22:02;;;;;;;8.82;2.65;;;;;;;;;;4350520;32;415649;-87
2023/09/29 08:24:31;;;;;;;7.32;3.05;;;;;;;;;;4365212;32;349089;-86
2023/09/29 08:27:00;;;;;;;16.65;3.30;;;;;;;;;;4356313;32;316825;-89
2023/09/29 08:29:28;;;;;;;11.45;3.08;;;;;;;;;;4365944;32;318005;-82
2023/09/29 08:31:57;;;;;;;19.33;4.05;;;;;;;;;;4353962;32;317724;-86
2023/09/29 08:34:28;;;;;;;13.05;4.15;;;;;;;;;;4366503;32;318258;-87
2023/09/29 08:36:56;;;;;;;10.40;2.45;;;;;;;;;;4354524;32;318093;-86
2023/09/29 08:39:24;;;;;;;18.52;3.28;;;;;;;;;;4369615;32;318317;-87
2023/09/29 08:42:00;;;;;;;7.20;2.50;;;;;;;;;;4360215;32;318063;-87
2023/09/29 08:44:28;;;;;;;12.88;3.22;;;;;;;;;;4369358;32;316803;-89
2023/09/29 08:47:01;;;;;;;12.10;3.22;;;;;;;;;;4357871;32;331610;-86
2023/09/29 08:49:30;;;;;;;8.70;3.15;;;;;;;;;;4368965;32;318154;-87
2023/09/29 08:52:03;;;;;;;13.15;2.80;;;;;;;;;;4353443;32;316694;-87
2023/09/29 08:54:32;;;;;;;9.90;2.47;;;;;;;;;;4368777;32;317969;-87
2023/09/29 08:57:00;;;;;;;15.23;2.53;;;;;;;;;;4357926;32;316639;-88
2023/09/29 08:59:28;;;;;;;7.32;2.10;;;;;;;;;;4368755;32;317962;-88
2023/09/29 09:01:58;;;;;;;11.25;3.03;;;;;;;;;;4341073;32;316742;-87
2023/09/29 09:04:28;;;;;;;8.68;2.22;;;;;;;;;;4366984;32;317878;-85
2023/09/29 09:06:57;;;;;;;10.82;2.62;;;;;;;;;;4356523;32;316849;-87
2023/09/29 09:09:24;;;;;;;11.25;2.83;;;;;;;;;;4369488;32;317999;-87
2023/09/29 09:11:54;;;;;;;15.52;2.97;;;;;;;;;;4357547;32;318103;-89
2023/09/29 09:14:22;;;;;;;12.75;2.85;;;;;;;;;;4366745;32;317657;-84
2023/09/29 09:16:50;;;;;;;13.57;3.55;;;;;;;;;;4357062;32;317705;-88
2023/09/29 09:19:19;;;;;;;8.35;2.70;;;;;;;;;;4367979;32;317927;-82
2023/09/29 09:21:47;;;;;;;12.88;2.40;;;;;;;;;;4357927;32;331873;-81
2023/09/29 09:24:23;;;;;;;10.77;2.85;;;;;;;;;;4364957;32;317852;-86
2023/09/29 09:26:51;;;;;;;6.30;2.22;;;;;;;;;;4358557;32;325029;-86
2023/09/29 09:29:19;;;;;;;13.80;2.72;;;;;;;;;;4367040;32;316967;-86
2023/09/29 09:31:50;;;;;;;15.40;2.92;;;;;;;;;;4355509;32;317976;-88
2023/09/29 09:34:19;;;;;;;21.60;2.90;;;;;;;;;;4365695;32;317866;-88
2023/09/29 09:36:51;;;;;;;13.23;2.97;;;;;;;;;;4355999;32;317586;-86
2023/09/29 09:39:35;;;;;;;23.52;2.92;;;;;;;;;;4367989;32;318152;-87
2023/09/29 09:42:05;;;;;;;9.38;2.12;;;;;;;;;;4338409;32;420136;-87
2023/09/29 09:44:34;;;;;;;9.05;3.47;;;;;;;;;;4366928;32;316749;-86
2023/09/29 09:47:04;;;;;;;8.60;2.60;;;;;;;;;;4356652;32;316601;-87
2023/09/29 09:49:38;;;;;;;10.57;2.05;;;;;;;;;;4368809;32;316695;-87
2023/09/29 09:52:08;;;;;;;11.32;2.08;;;;;;;;;;4348929;32;418438;-88
2023/09/29 09:54:49;;;;;;;16.02;2.67;;;;;;;;;;4367257;32;317674;-88
2023/09/29 09:57:24;;;;;;;12.60;2.65;;;;;;;;;;4352477;32;417407;-88
2023/09/29 09:59:55;;;;;;;9.32;2.65;;;;;;;;;;4351317;32;318071;-88
2023/09/29 10:02:24;;;;;;;16.37;2.78;;;;;;;;;;4366464;32;316998;-87
2023/09/29 10:04:54;;;;;;;11.90;3.08;;;;;;;;;;4357299;32;318127;-87
2023/09/29 10:07:22;;;;;;;11.20;2.92;;;;;;;;;;4367353;32;317687;-87
2023/09/29 10:09:51;;;;;;;14.98;2.22;;;;;;;;;;4357799;32;317797;-88
2023/09/29 10:12:26;;;;;;;11.20;2.55;;;;;;;;;;4364325;32;317860;-87
2023/09/29 10:14:53;;;;;;;17.12;2.42;;;;;;;;;;4354743;32;317840;-88
2023/09/29 10:17:22;;;;;;;11.23;3.03;;;;;;;;;;4366168;32;348692;-88
2023/09/29 10:19:54;;;;;;;14.32;2.55;;;;;;;;;;4358285;32;317860;-87
2023/09/29 10:22:24;;;;;;;5.22;2.00;;;;;;;;;;4366839;32;317607;-86
2023/09/29 10:24:57;;;;;;;15.50;2.45;;;;;;;;;;4357126;32;316722;-86
2023/09/29 10:27:33;;;;;;;13.70;2.53;;;;;;;;;;4368028;32;318083;-90
2023/09/29 10:30:15;;;;;;;14.02;2.83;;;;;;;;;;4353550;32;318089;-89
2023/09/29 10:32:45;;;;;;;9.27;2.30;;;;;;;;;;4354299;32;317672;-87
2023/09/29 10:35:18;;;;;;;9.27;2.35;;;;;;;;;;4367166;32;316705;-87
2023/09/29 10:37:54;;;;;;;12.90;2.60;;;;;;;;;;4354721;32;316630;-90
2023/09/29 10:40:28;;;;;;;8.10;2.30;;;;;;;;;;4365335;32;317760;-87
2023/09/29 10:42:56;;;;;;;10.73;2.37;;;;;;;;;;4355960;32;316620;-89
2023/09/29 10:45:36;;;;;;;11.32;2.55;;;;;;;;;;4367798;32;317797;-90
2023/09/29 10:48:09;;;;;;;8.07;2.55;;;;;;;;;;4347361;32;416628;-90
2023/09/29 10:50:42;;;;;;;8.77;2.95;;;;;;;;;;4352862;32;316671;-90
2023/09/29 10:53:11;;;;;;;9.52;2.67;;;;;;;;;;4360383;32;316664;-90
2023/09/29 10:55:56;;;;;;;6.43;2.70;;;;;;;;;;4347850;32;316814;-92
2023/09/29 10:58:27;;;;;;;11.07;3.05;;;;;;;;;;4357084;32;316670;-89
2023/09/29 11:00:55;;;;;;;14.20;2.55;;;;;;;;;;4349094;32;317800;-92
2023/09/29 11:03:29;;;;;;;10.65;2.90;;;;;;;;;;4361538;32;317680;-90
2023/09/29 11:06:03;;;;;;;14.35;3.15;;;;;;;;;;4344892;32;317808;-88
2023/09/29 11:08:34;;;;;;;3.92;2.62;;;;;;;;;;4359070;32;317649;-90
2023/09/29 11:11:04;;;;;;;8.10;2.97;;;;;;;;;;4353177;32;316671;-90
2023/09/29 11:13:32;;;;;;;12.70;3.17;;;;;;;;;;4364971;32;316613;-89
2023/09/29 11:16:00;;;;;;;8.32;3.47;;;;;;;;;;4345703;32;317491;-88
2023/09/29 11:18:32;;;;;;;6.03;2.80;;;;;;;;;;4361829;32;316458;-90
2023/09/29 11:21:04;;;;;;;8.73;3.20;;;;;;;;;;4353424;32;316676;-88
2023/09/29 11:23:40;;;;;;;4.90;2.25;;;;;;;;;;4362193;32;334515;-91
2023/09/29 11:26:11;;;;;;;17.48;3.80;;;;;;;;;;4343963;32;386774;-90
2023/09/29 11:28:44;;;;;;;4.80;2.55;;;;;;;;;;4357244;32;317904;-90
2023/09/29 11:31:13;;;;;;;5.80;3.00;;;;;;;;;;4366524;32;348083;-90
2023/09/29 11:33:41;;;;;;;8.73;3.47;;;;;;;;;;4357745;32;316598;-90
2023/09/29 11:36:15;;;;;;;12.93;2.78;;;;;;;;;;4363329;32;318580;-90
2023/09/29 11:38:43;;;;;;;4.72;2.45;;;;;;;;;;4355312;32;317944;-86
2023/09/29 11:41:13;;;;;;;19.58;3.25;;;;;;;;;;4366569;32;316661;-86
2023/09/29 11:43:42;;;;;;;7.60;2.55;;;;;;;;;;4353158;32;338294;-86
2023/09/29 11:46:10;;;;;;;7.07;2.80;;;;;;;;;;4364864;32;316967;-86
2023/09/29 11:48:38;;;;;;;6.32;3.03;;;;;;;;;;4357082;32;317056;-86
2023/09/29 11:51:06;;;;;;;5.25;3.30;;;;;;;;;;4366521;32;316808;-85
2023/09/29 11:53:34;;;;;;;6.75;3.33;;;;;;;;;;4366596;32;316946;-85
2023/09/29 11:56:01;;;;;;;6.22;3.00;;;;;;;;;;4349512;32;317111;-86
2023/09/29 11:58:30;;;;;;;8.68;3.35;;;;;;;;;;4366691;32;317325;-86
2023/09/29 12:01:00;;;;;;;15.32;3.08;;;;;;;;;;4356570;32;316724;-85
2023/09/29 12:03:28;;;;;;;9.30;3.15;;;;;;;;;;4367936;32;317817;-86
2023/09/29 12:05:58;;;;;;;13.65;3.60;;;;;;;;;;4354915;32;316703;-87
2023/09/29 12:08:27;;;;;;;10.23;3.55;;;;;;;;;;4366937;32;337230;-89
2023/09/29 12:10:55;;;;;;;6.53;3.30;;;;;;;;;;4355668;32;317739;-89
2023/09/29 12:13:22;;;;;;;13.30;3.83;;;;;;;;;;4368240;32;316586;-89
2023/09/29 12:15:55;;;;;;;10.73;3.67;;;;;;;;;;4359003;32;317573;-90
2023/09/29 12:18:26;;;;;;;11.43;3.62;;;;;;;;;;4370349;32;317708;-89
2023/09/29 12:20:56;;;;;;;9.43;3.35;;;;;;;;;;4358959;32;317754;-90
2023/09/29 12:23:23;;;;;;;8.95;3.22;;;;;;;;;;4355622;32;316783;-89
2023/09/29 12:25:51;;;;;;;6.65;3.40;;;;;;;;;;4368053;32;316923;-89
2023/09/29 12:28:19;;;;;;;6.25;3.42;;;;;;;;;;4359904;32;316782;-89
2023/09/29 12:30:46;;;;;;;17.60;3.62;;;;;;;;;;4366748;32;316720;-89
2023/09/29 12:33:15;;;;;;;8.63;3.67;;;;;;;;;;4359310;32;317589;-90
2023/09/29 12:35:43;;;;;;;9.15;3.22;;;;;;;;;;4368044;32;316668;-89
2023/09/29 12:38:10;;;;;;;11.90;3.67;;;;;;;;;;4359326;32;316864;-90
2023/09/29 12:40:39;;;;;;;11.88;4.05;;;;;;;;;;4365146;32;316578;-89
2023/09/29 12:43:06;;;;;;;6.60;3.65;;;;;;;;;;4359683;32;317765;-90
2023/09/29 12:45:35;;;;;;;10.70;3.62;;;;;;;;;;4369445;32;316685;-90
2023/09/29 12:48:02;;;;;;;6.00;3.47;;;;;;;;;;4359989;32;317683;-90
2023/09/29 12:50:38;;;;;;;6.35;4.07;;;;;;;;;;4363633;32;316808;-89
2023/09/29 12:53:06;;;;;;;8.90;3.90;;;;;;;;;;4360606;32;316657;-90
2023/09/29 12:55:33;;;;;;;8.95;4.28;;;;;;;;;;4369587;32;316799;-90
2023/09/29 12:58:05;;;;;;;8.95;3.95;;;;;;;;;;4359749;32;316686;-92
2023/09/29 13:00:34;;;;;;;12.45;4.90;;;;;;;;;;4363536;32;316854;-89
2023/09/29 13:03:04;;;;;;;8.70;3.65;;;;;;;;;;4357125;32;328407;-90
2023/09/29 13:05:35;;;;;;;10.85;4.00;;;;;;;;;;4368093;32;316639;-90
2023/09/29 13:08:04;;;;;;;11.88;4.00;;;;;;;;;;4355368;32;317860;-90
2023/09/29 13:10:32;;;;;;;8.20;4.22;;;;;;;;;;4366539;32;317891;-90
2023/09/29 13:13:00;;;;;;;7.18;4.55;;;;;;;;;;4369633;32;316574;-90
2023/09/29 13:15:31;;;;;;;11.38;3.58;;;;;;;;;;4356294;32;416314;-90
2023/09/29 13:17:58;;;;;;;14.55;4.50;;;;;;;;;;4369442;32;317813;-90
2023/09/29 13:20:26;;;;;;;14.32;4.53;;;;;;;;;;4347333;32;319012;-89
2023/09/29 13:22:55;;;;;;;16.42;4.03;;;;;;;;;;4368389;32;317808;-90
2023/09/29 13:25:23;;;;;;;11.15;4.65;;;;;;;;;;4358176;32;317771;-90
2023/09/29 13:27:52;;;;;;;9.18;4.45;;;;;;;;;;4368676;32;317570;-90
2023/09/29 13:30:20;;;;;;;7.97;4.68;;;;;;;;;;4355955;32;340079;-89
2023/09/29 13:32:47;;;;;;;12.27;4.68;;;;;;;;;;4368422;32;316556;-90
2023/09/29 13:35:16;;;;;;;21.35;5.00;;;;;;;;;;4358761;32;317708;-90
2023/09/29 13:37:44;;;;;;;12.32;4.15;;;;;;;;;;4369400;32;317667;-90
2023/09/29 13:40:16;;;;;;;12.20;4.65;;;;;;;;;;4358302;32;317629;-90
2023/09/29 13:42:44;;;;;;;8.95;5.47;;;;;;;;;;4367288;32;317688;-90
2023/09/29 13:45:12;;;;;;;9.77;4.65;;;;;;;;;;4356371;32;317020;-90
2023/09/29 13:47:40;;;;;;;10.70;4.15;;;;;;;;;;4365069;32;325428;-90
2023/09/29 13:50:11;;;;;;;12.63;5.03;;;;;;;;;;4358068;32;317706;-90
2023/09/29 13:52:40;;;;;;;10.15;3.97;;;;;;;;;;4365695;32;317899;-90
2023/09/29 13:55:08;;;;;;;13.38;4.78;;;;;;;;;;4358163;32;317821;-90
2023/09/29 13:57:39;;;;;;;7.28;4.03;;;;;;;;;;4369074;32;317879;-89
2023/09/29 14:00:08;;;;;;;14.68;4.35;;;;;;;;;;4358017;32;316758;-91
2023/09/29 14:02:35;;;;;;;20.08;5.15;;;;;;;;;;4363391;32;317685;-90
2023/09/29 14:05:05;;;;;;;8.43;4.43;;;;;;;;;;4356708;32;318161;-91
2023/09/29 14:07:33;;;;;;;10.40;4.00;;;;;;;;;;4366932;32;316665;-91
2023/09/29 14:10:03;;;;;;;14.35;4.35;;;;;;;;;;4369472;32;317813;-91
2023/09/29 14:12:37;;;;;;;18.23;5.35;;;;;;;;;;4332483;32;419386;-91
2023/09/29 14:15:07;;;;;;;17.05;5.50;;;;;;;;;;4357752;32;318209;-91
2023/09/29 14:17:35;;;;;;;9.40;4.30;;;;;;;;;;4369712;32;317910;-88
2023/09/29 14:20:05;;;;;;;7.65;4.70;;;;;;;;;;4358947;32;316538;-89
2023/09/29 14:22:33;;;;;;;6.25;3.83;;;;;;;;;;4367923;32;316476;-88
2023/09/29 14:25:00;;;;;;;10.15;5.18;;;;;;;;;;4369780;32;316642;-88
2023/09/29 14:27:28;;;;;;;7.10;4.95;;;;;;;;;;4354816;32;417217;-89
2023/09/29 14:29:56;;;;;;;11.63;5.10;;;;;;;;;;4368746;32;316654;-89
2023/09/29 14:32:26;;;;;;;9.32;3.97;;;;;;;;;;4355021;32;317554;-89